createdAt,value
2018-05-31T00:02:05.849Z,98822.66
2018-05-31T00:04:39.652Z,98824.23
2018-05-31T00:07:13.360Z,98823.84
2018-05-31T00:09:46.857Z,98826.02
2018-05-31T00:12:20.461Z,98818.50
2018-05-31T00:14:54.159Z,98823.23
2018-05-31T00:17:27.864Z,98819.27
2018-05-31T00:20:01.714Z,98814.15
2018-05-31T00:22:35.255Z,98811.16
2018-05-31T00:25:08.824Z,98809.38
2018-05-31T00:27:42.404Z,98810.55
2018-05-31T00:30:16.251Z,98817.09
2018-05-31T00:32:50.143Z,98813.72
2018-05-31T00:35:23.942Z,98808.78
2018-05-31T00:37:57.692Z,98814.91
2018-05-31T00:40:31.420Z,98807.39
2018-05-31T00:43:05.211Z,98807.75
2018-05-31T00:45:39.004Z,98808.73
2018-05-31T00:48:12.555Z,98811.50
2018-05-31T00:50:46.305Z,98811.50
2018-05-31T00:53:19.932Z,98812.69
2018-05-31T00:56:05.568Z,98813.68
2018-05-31T00:58:39.322Z,98806.95
2018-05-31T01:01:12.963Z,98814.06
2018-05-31T01:03:46.536Z,98814.02
2018-05-31T01:06:20.328Z,98809.92
2018-05-31T01:08:53.928Z,98812.30
2018-05-31T01:11:27.728Z,98812.29
2018-05-31T01:14:01.258Z,98810.27
2018-05-31T01:16:34.935Z,98817.05
2018-05-31T01:19:08.513Z,98814.67
2018-05-31T01:21:42.258Z,98819.02
2018-05-31T01:24:15.791Z,98820.80
2018-05-31T01:26:49.558Z,98819.37
2018-05-31T01:29:23.104Z,98816.80
2018-05-31T01:31:56.717Z,98816.05
2018-05-31T01:34:30.508Z,98817.59
2018-05-31T01:37:04.200Z,98817.79
2018-05-31T01:39:37.808Z,98811.69
2018-05-31T01:42:11.472Z,98811.66
2018-05-31T01:44:45.247Z,98806.31
2018-05-31T01:47:19.068Z,98810.47
2018-05-31T01:49:52.679Z,98806.52
2018-05-31T01:52:26.313Z,98806.52
2018-05-31T01:55:00.064Z,98803.23
2018-05-31T01:57:33.635Z,98803.20
2018-05-31T02:00:07.186Z,98789.19
2018-05-31T02:02:40.969Z,98807.49
2018-05-31T02:05:14.704Z,98806.90
2018-05-31T02:07:48.304Z,98810.14
2018-05-31T02:10:21.808Z,98810.88
2018-05-31T02:12:55.403Z,98806.11
2018-05-31T02:15:28.913Z,98810.55
2018-05-31T02:18:02.528Z,98805.42
2018-05-31T02:20:36.040Z,98808.98
2018-05-31T02:23:09.886Z,98799.67
2018-05-31T02:25:43.592Z,98804.39
2018-05-31T02:28:17.372Z,98795.52
2018-05-31T02:30:50.951Z,98795.91
2018-05-31T02:33:24.699Z,98801.42
2018-05-31T02:35:58.336Z,98799.23
2018-05-31T02:38:32.101Z,98795.91
2018-05-31T02:41:05.821Z,98799.44
2018-05-31T02:43:39.565Z,98818.02
2018-05-31T02:46:13.068Z,98812.09
2018-05-31T02:48:46.858Z,98816.45
2018-05-31T02:51:20.552Z,98817.38
2018-05-31T02:53:54.341Z,98819.74
2018-05-31T02:56:28.108Z,98826.81
2018-05-31T02:59:01.784Z,98833.30
2018-05-31T03:01:35.267Z,98835.89
2018-05-31T03:04:08.859Z,98828.15
2018-05-31T03:06:42.467Z,98826.54
2018-05-31T03:09:16.096Z,98816.88
2018-05-31T03:11:49.603Z,98830.30
2018-05-31T03:14:23.368Z,98819.70
2018-05-31T03:16:56.983Z,98821.33
2018-05-31T03:19:30.575Z,98819.34
2018-05-31T03:22:04.220Z,98825.29
2018-05-31T03:24:38.012Z,98826.28
2018-05-31T03:27:15.065Z,98819.93
2018-05-31T03:29:48.680Z,98820.86
2018-05-31T03:32:22.264Z,98823.83
2018-05-31T03:34:55.812Z,98822.35
2018-05-31T03:37:29.568Z,98825.40
2018-05-31T03:40:03.215Z,98830.46
2018-05-31T03:42:36.879Z,98832.83
2018-05-31T03:45:10.600Z,98835.77
2018-05-31T03:47:44.359Z,98838.28
2018-05-31T03:50:17.911Z,98844.06
2018-05-31T03:52:51.489Z,98850.11
2018-05-31T03:55:25.131Z,98838.72
2018-05-31T03:57:58.740Z,98843.20
2018-05-31T04:00:32.264Z,98839.05
2018-05-31T04:03:05.855Z,98845.20
2018-05-31T04:05:39.444Z,98839.55
2018-05-31T04:08:13.964Z,98843.34
2018-05-31T04:10:47.552Z,98851.13
2018-05-31T04:13:21.136Z,98847.38
2018-05-31T04:15:54.871Z,98851.55
2018-05-31T04:18:28.505Z,98853.42
2018-05-31T04:21:02.532Z,98857.69
2018-05-31T04:23:36.064Z,98855.06
2018-05-31T04:26:09.881Z,98860.06
2018-05-31T04:28:43.642Z,98861.53
2018-05-31T04:31:17.458Z,98863.64
2018-05-31T04:33:51.181Z,98869.95
2018-05-31T04:36:24.836Z,98873.38
2018-05-31T04:38:58.509Z,98878.33
2018-05-31T04:41:32.312Z,98882.45
2018-05-31T04:44:05.941Z,98882.20
2018-05-31T04:46:39.708Z,98875.42
2018-05-31T04:49:13.370Z,98879.97
2018-05-31T04:51:47.176Z,98875.91
2018-05-31T04:54:20.740Z,98877.00
2018-05-31T04:56:54.621Z,98872.16
2018-05-31T04:59:28.340Z,98871.31
2018-05-31T05:02:02.124Z,98869.40
2018-05-31T05:04:35.857Z,98869.05
2018-05-31T05:07:09.552Z,98866.95
2018-05-31T05:09:43.068Z,98863.55
2018-05-31T05:12:16.673Z,98864.79
2018-05-31T05:14:50.254Z,98861.09
2018-05-31T05:17:24.085Z,98871.38
2018-05-31T05:19:57.798Z,98865.95
2018-05-31T05:22:31.377Z,98872.43
2018-05-31T05:25:05.080Z,98880.02
2018-05-31T05:27:38.889Z,98887.99
2018-05-31T05:30:12.558Z,98877.48
2018-05-31T05:32:46.304Z,98885.09
2018-05-31T05:35:20.036Z,98878.09
2018-05-31T05:37:53.817Z,98881.84
2018-05-31T05:40:27.544Z,98879.67
2018-05-31T05:43:01.253Z,98882.47
2018-05-31T05:45:34.840Z,98883.56
2018-05-31T05:48:08.649Z,98879.86
2018-05-31T05:50:42.260Z,98875.84
2018-05-31T05:53:16.007Z,98872.49
2018-05-31T05:55:49.734Z,98867.83
2018-05-31T05:58:23.439Z,98872.58
2018-05-31T06:00:57.141Z,98878.71
2018-05-31T06:03:30.845Z,98879.86
2018-05-31T06:06:04.545Z,98889.97
2018-05-31T06:08:38.363Z,98892.12
2018-05-31T06:11:12.222Z,98895.14
2018-05-31T06:13:45.921Z,98897.86
2018-05-31T06:16:19.601Z,98903.20
2018-05-31T06:18:53.259Z,98895.44
2018-05-31T06:21:26.953Z,98907.66
2018-05-31T06:24:00.588Z,98912.04
2018-05-31T06:26:34.261Z,98920.66
2018-05-31T06:29:08.072Z,98914.67
2018-05-31T06:31:41.684Z,98921.13
2018-05-31T06:34:15.296Z,98920.33
2018-05-31T06:36:49.067Z,98921.88
2018-05-31T06:39:22.745Z,98922.16
2018-05-31T06:41:56.437Z,98919.59
2018-05-31T06:44:30.016Z,98924.84
2018-05-31T06:47:03.809Z,98926.58
2018-05-31T06:49:37.525Z,98935.61
2018-05-31T06:52:11.089Z,98940.03
2018-05-31T06:54:44.818Z,98933.52
2018-05-31T06:57:18.421Z,98942.27
2018-05-31T06:59:52.137Z,98939.50
2018-05-31T07:02:25.804Z,98942.87
2018-05-31T07:04:59.457Z,98939.97
2018-05-31T07:07:33.021Z,98936.56
2018-05-31T07:10:06.745Z,98937.22
2018-05-31T07:12:40.430Z,98936.15
2018-05-31T07:15:14.034Z,98939.78
2018-05-31T07:17:47.556Z,98940.01
2018-05-31T07:20:21.220Z,98939.34
2018-05-31T07:22:55.042Z,98944.48
2018-05-31T07:25:28.773Z,98954.79
2018-05-31T07:28:02.276Z,98946.67
2018-05-31T07:30:35.865Z,98947.03
2018-05-31T07:33:09.578Z,98943.45
2018-05-31T07:35:43.283Z,98938.55
2018-05-31T07:38:16.988Z,98935.94
2018-05-31T07:40:50.564Z,98943.78
2018-05-31T07:43:24.306Z,98942.48
2018-05-31T07:45:57.997Z,98943.95
2018-05-31T07:48:31.915Z,98948.55
2018-05-31T07:51:05.508Z,98949.72
2018-05-31T07:53:39.267Z,98945.45
2018-05-31T07:56:12.901Z,98951.28
2018-05-31T07:58:46.465Z,98938.83
2018-05-31T08:01:20.225Z,98941.15
2018-05-31T08:03:53.948Z,98943.55
2018-05-31T08:06:27.656Z,98945.47
2018-05-31T08:09:01.230Z,98942.77
2018-05-31T08:11:34.961Z,98943.62
2018-05-31T08:14:08.577Z,98943.43
2018-05-31T08:16:42.309Z,98951.14
2018-05-31T08:19:16.224Z,98949.45
2018-05-31T08:21:49.865Z,98953.02
2018-05-31T08:24:23.449Z,98951.41
2018-05-31T08:26:57.161Z,98956.18
2018-05-31T08:29:30.776Z,98956.17
2018-05-31T08:32:04.332Z,98951.42
2018-05-31T08:34:38.100Z,98968.59
2018-05-31T08:37:11.800Z,98964.98
2018-05-31T08:39:45.369Z,98961.58
2018-05-31T08:42:19.044Z,98957.43
2018-05-31T08:44:52.795Z,98959.42
2018-05-31T08:47:27.264Z,98961.64
2018-05-31T08:50:00.832Z,98959.43
2018-05-31T08:52:34.536Z,98957.58
2018-05-31T08:55:08.329Z,98957.91
2018-05-31T08:57:41.840Z,98964.00
2018-05-31T09:00:15.517Z,98963.67
2018-05-31T09:02:49.224Z,98962.95
2018-05-31T09:05:22.877Z,98959.59
2018-05-31T09:07:56.807Z,98963.44
2018-05-31T09:10:30.460Z,98960.75
2018-05-31T09:13:04.210Z,98962.20
2018-05-31T09:15:38.077Z,98963.38
2018-05-31T09:18:11.685Z,98964.20
2018-05-31T09:20:45.278Z,98965.27
2018-05-31T09:23:18.986Z,98962.00
2018-05-31T09:25:52.653Z,98961.22
2018-05-31T09:28:26.357Z,98962.98
2018-05-31T09:31:00.213Z,98966.19
2018-05-31T09:33:33.859Z,98963.03
2018-05-31T09:36:07.580Z,98959.92
2018-05-31T09:38:41.187Z,98965.14
2018-05-31T09:41:14.881Z,98957.78
2018-05-31T09:43:48.368Z,98967.08
2018-05-31T09:46:22.057Z,98958.20
2018-05-31T09:48:55.730Z,98960.68
2018-05-31T09:51:29.289Z,98959.66
2018-05-31T09:54:02.960Z,98961.66
2018-05-31T09:56:36.696Z,98955.66
2018-05-31T09:59:10.695Z,98955.91
2018-05-31T10:01:44.256Z,98951.10
2018-05-31T10:04:17.929Z,98957.93
2018-05-31T10:06:51.478Z,98959.01
2018-05-31T10:09:25.070Z,98954.05
2018-05-31T10:11:58.736Z,98964.64
2018-05-31T10:14:32.267Z,98966.46
2018-05-31T10:17:05.926Z,98968.81
2018-05-31T10:19:39.528Z,98968.86
2018-05-31T10:22:13.037Z,98971.33
2018-05-31T10:24:46.587Z,98965.98
2018-05-31T10:27:20.316Z,98960.24
2018-05-31T10:29:54.092Z,98965.13
2018-05-31T10:32:27.669Z,98959.66
2018-05-31T10:35:01.355Z,98960.88
2018-05-31T10:37:35.145Z,98952.84
2018-05-31T10:40:08.708Z,98956.31
2018-05-31T10:42:42.528Z,98967.25
2018-05-31T10:45:16.300Z,98957.58
2018-05-31T10:47:49.872Z,98954.84
2018-05-31T10:50:23.495Z,98951.91
2018-05-31T10:52:57.000Z,98959.07
2018-05-31T10:55:30.568Z,98939.58
2018-05-31T10:58:04.112Z,98938.95
2018-05-31T11:00:37.639Z,98935.52
2018-05-31T11:03:11.466Z,98935.65
2018-05-31T11:05:45.025Z,98940.64
2018-05-31T11:08:18.794Z,98933.16
2018-05-31T11:10:52.503Z,98942.78
2018-05-31T11:13:26.104Z,98944.98
2018-05-31T11:15:59.861Z,98930.00
2018-05-31T11:18:33.565Z,98931.90
2018-05-31T11:21:07.112Z,98927.97
2018-05-31T11:23:40.690Z,98940.22
2018-05-31T11:26:14.237Z,98944.52
2018-05-31T11:28:47.743Z,98942.53
2018-05-31T11:31:21.494Z,98951.25
2018-05-31T11:33:55.619Z,98950.28
2018-05-31T11:36:29.250Z,98958.76
2018-05-31T11:39:02.820Z,98956.91
2018-05-31T11:41:36.359Z,98956.56
2018-05-31T11:44:09.943Z,98958.15
2018-05-31T11:46:43.553Z,98956.63
2018-05-31T11:49:17.275Z,98962.52
2018-05-31T11:51:51.016Z,98965.86
2018-05-31T11:54:24.812Z,98964.94
2018-05-31T11:56:58.447Z,98955.86
2018-05-31T11:59:31.992Z,98960.88
2018-05-31T12:02:05.731Z,98958.18
2018-05-31T12:04:39.531Z,98959.21
2018-05-31T12:07:13.195Z,98955.39
2018-05-31T12:09:46.835Z,98958.89
2018-05-31T12:12:20.599Z,98955.84
2018-05-31T12:14:54.192Z,98950.57
2018-05-31T12:17:27.967Z,98942.88
2018-05-31T12:20:01.347Z,98935.58
2018-05-31T12:22:35.017Z,98931.66
2018-05-31T12:25:08.679Z,98932.34
2018-05-31T12:27:42.441Z,98920.09
2018-05-31T12:30:15.969Z,98924.38
2018-05-31T12:32:49.520Z,98935.94
2018-05-31T12:35:23.270Z,98938.21
2018-05-31T12:37:56.910Z,98943.78
2018-05-31T12:40:30.536Z,98934.48
2018-05-31T12:43:04.139Z,98935.89
2018-05-31T12:45:37.791Z,98936.50
2018-05-31T12:48:11.387Z,98938.73
2018-05-31T12:50:44.954Z,98931.59
2018-05-31T12:53:18.480Z,98916.91
2018-05-31T12:55:52.147Z,98915.92
2018-05-31T12:58:25.711Z,98917.95
2018-05-31T13:00:59.356Z,98911.05
2018-05-31T13:03:32.999Z,98903.95
2018-05-31T13:06:06.628Z,98899.89
2018-05-31T13:08:40.176Z,98881.84
2018-05-31T13:11:13.948Z,98887.02
2018-05-31T13:13:47.538Z,98887.26
2018-05-31T13:16:21.304Z,98889.22
2018-05-31T13:18:55.041Z,98888.84
2018-05-31T13:21:28.686Z,98898.28
2018-05-31T13:24:02.230Z,98903.59
2018-05-31T13:26:35.797Z,98903.30
2018-05-31T13:29:09.390Z,98906.41
2018-05-31T13:31:42.880Z,98907.44
2018-05-31T13:34:16.416Z,98907.72
2018-05-31T13:36:50.119Z,98902.64
2018-05-31T13:39:23.638Z,98903.20
2018-05-31T13:41:57.280Z,98898.84
2018-05-31T13:44:31.678Z,98905.70
2018-05-31T13:47:05.376Z,98904.22
2018-05-31T13:49:38.933Z,98906.66
2018-05-31T13:52:12.783Z,98904.52
2018-05-31T13:54:46.416Z,98903.98
2018-05-31T13:57:20.137Z,98905.44
2018-05-31T13:59:53.691Z,98904.64
2018-05-31T14:02:27.164Z,98913.82
2018-05-31T14:05:00.700Z,98913.29
2018-05-31T14:07:34.351Z,98913.13
2018-05-31T14:10:07.835Z,98914.69
2018-05-31T14:12:41.584Z,98914.87
2018-05-31T14:15:15.220Z,98923.23
2018-05-31T14:17:48.972Z,98917.50
2018-05-31T14:20:22.551Z,98913.23
2018-05-31T14:22:56.143Z,98908.16
2018-05-31T14:25:29.708Z,98902.66
2018-05-31T14:28:03.400Z,98902.48
2018-05-31T14:30:36.940Z,98890.90
2018-05-31T14:33:10.708Z,98896.31
2018-05-31T14:35:44.341Z,98883.04
2018-05-31T14:38:18.205Z,98881.63
2018-05-31T14:40:52.067Z,98877.61
2018-05-31T14:43:25.653Z,98871.84
2018-05-31T14:45:59.280Z,98869.28
2018-05-31T14:48:32.931Z,98859.74
2018-05-31T14:51:06.415Z,98866.37
2018-05-31T14:53:40.140Z,98868.32
2018-05-31T14:56:13.804Z,98871.19
2018-05-31T14:58:47.562Z,98871.16
2018-05-31T15:01:21.135Z,98864.84
2018-05-31T15:03:54.855Z,98871.79
2018-05-31T15:06:28.387Z,98866.97
2018-05-31T15:09:02.012Z,98862.95
2018-05-31T15:11:35.563Z,98868.77
2018-05-31T15:14:09.172Z,98866.95
2018-05-31T15:16:42.817Z,98869.70
2018-05-31T15:19:16.410Z,98873.19
2018-05-31T15:21:50.061Z,98869.30
2018-05-31T15:24:23.631Z,98866.43
2018-05-31T15:26:57.340Z,98867.11
2018-05-31T15:29:30.920Z,98872.92
2018-05-31T15:32:04.471Z,98877.12
2018-05-31T15:34:38.067Z,98867.41
2018-05-31T15:37:11.608Z,98869.16
2018-05-31T15:39:45.416Z,98866.67
2018-05-31T15:42:18.968Z,98866.14
2018-05-31T15:44:52.698Z,98861.65
2018-05-31T15:47:26.699Z,98864.85
2018-05-31T15:50:00.395Z,98862.91
2018-05-31T15:52:33.983Z,98860.84
2018-05-31T15:55:07.736Z,98867.55
2018-05-31T15:57:41.340Z,98855.59
2018-05-31T16:00:15.021Z,98867.56
2018-05-31T16:02:48.645Z,98865.85
2018-05-31T16:05:22.340Z,98867.38
2018-05-31T16:07:55.876Z,98866.34
2018-05-31T16:10:29.452Z,98860.69
2018-05-31T16:13:03.055Z,98855.67
2018-05-31T16:15:36.834Z,98849.85
2018-05-31T16:18:10.388Z,98854.49
2018-05-31T16:20:44.116Z,98838.52
2018-05-31T16:23:17.639Z,98840.13
2018-05-31T16:25:51.295Z,98835.43
2018-05-31T16:28:24.828Z,98836.50
2018-05-31T16:30:58.371Z,98825.20
2018-05-31T16:33:32.014Z,98825.08
2018-05-31T16:36:05.689Z,98827.28
2018-05-31T16:38:39.217Z,98831.27
2018-05-31T16:41:12.964Z,98826.59
2018-05-31T16:43:46.697Z,98833.73
2018-05-31T16:46:20.300Z,98830.55
2018-05-31T16:48:53.836Z,98829.31
2018-05-31T16:51:27.604Z,98834.85
2018-05-31T16:54:01.148Z,98836.09
2018-05-31T16:56:34.643Z,98836.77
2018-05-31T16:59:08.199Z,98843.23
2018-05-31T17:01:41.963Z,98844.41
2018-05-31T17:04:15.743Z,98844.59
2018-05-31T17:06:49.515Z,98845.48
2018-05-31T17:09:23.172Z,98839.34
2018-05-31T17:11:56.652Z,98846.98
2018-05-31T17:14:30.227Z,98844.23
2018-05-31T17:17:03.839Z,98850.95
2018-05-31T17:19:37.581Z,98840.50
2018-05-31T17:22:11.087Z,98849.25
2018-05-31T17:24:44.764Z,98844.63
2018-05-31T17:27:18.396Z,98842.37
2018-05-31T17:29:52.152Z,98846.86
2018-05-31T17:32:25.700Z,98852.04
2018-05-31T17:34:59.349Z,98853.13
2018-05-31T17:37:32.948Z,98848.94
2018-05-31T17:40:06.455Z,98853.73
2018-05-31T17:42:40.170Z,98852.92
2018-05-31T17:45:13.939Z,98859.56
2018-05-31T17:47:47.706Z,98859.69
2018-05-31T17:50:21.452Z,98866.52
2018-05-31T17:52:54.943Z,98859.67
2018-05-31T17:55:28.503Z,98857.42
2018-05-31T17:58:02.008Z,98860.73
2018-05-31T18:00:35.637Z,98867.28
2018-05-31T18:03:09.388Z,98869.00
2018-05-31T18:05:43.167Z,98871.09
2018-05-31T18:08:16.812Z,98868.21
2018-05-31T18:10:50.457Z,98862.73
2018-05-31T18:13:24.032Z,98864.64
2018-05-31T18:15:57.789Z,98860.68
2018-05-31T18:18:31.544Z,98866.36
2018-05-31T18:21:05.045Z,98870.95
2018-05-31T18:23:38.624Z,98871.25
2018-05-31T18:26:12.179Z,98865.20
2018-05-31T18:28:45.656Z,98861.67
2018-05-31T18:31:19.580Z,98865.47
2018-05-31T18:33:53.140Z,98867.63
2018-05-31T18:36:26.948Z,98859.25
2018-05-31T18:39:00.752Z,98859.48
2018-05-31T18:41:34.274Z,98855.70
2018-05-31T18:44:07.808Z,98856.56
2018-05-31T18:46:41.337Z,98862.75
2018-05-31T18:49:15.112Z,98865.98
2018-05-31T18:51:48.770Z,98869.30
2018-05-31T18:54:22.547Z,98866.95
2018-05-31T18:57:13.420Z,98872.38
2018-05-31T18:59:47.164Z,98877.93
2018-05-31T19:02:20.664Z,98873.54
2018-05-31T19:04:54.184Z,98871.37
2018-05-31T19:07:27.784Z,98874.88
2018-05-31T19:10:01.568Z,98868.58
2018-05-31T19:12:41.108Z,98868.45
2018-05-31T19:15:21.632Z,98880.59
2018-05-31T19:17:48.592Z,98885.12
2018-05-31T19:20:22.224Z,98891.81
2018-05-31T19:22:55.844Z,98895.87
2018-05-31T19:25:29.456Z,98897.48
2018-05-31T19:28:02.976Z,98901.24
2018-05-31T19:30:42.108Z,98909.38
2018-05-31T19:33:15.924Z,98915.05
2018-05-31T19:35:55.048Z,98920.77
2018-05-31T19:38:28.701Z,98922.83
2018-05-31T19:41:02.380Z,98917.88
2018-05-31T19:43:41.668Z,98922.86
2018-05-31T19:46:38.715Z,98931.01
2018-05-31T19:49:12.339Z,98935.37
2018-05-31T19:51:51.563Z,98934.39
2018-05-31T19:54:25.230Z,98933.81
2018-05-31T20:00:03.728Z,98935.38
2018-05-31T20:02:43.093Z,98940.13
2018-05-31T20:05:16.887Z,98937.95
2018-05-31T20:07:50.559Z,98936.17
2018-05-31T20:10:24.083Z,98941.12
2018-05-31T20:12:57.844Z,98949.04
2018-05-31T20:15:31.372Z,98948.84
2018-05-31T20:18:04.997Z,98964.09
2018-05-31T20:20:38.532Z,98966.67
2018-05-31T20:23:12.083Z,98965.48
2018-05-31T20:25:45.591Z,98970.63
2018-05-31T20:28:19.113Z,98971.42
2018-05-31T20:30:52.748Z,98964.30
2018-05-31T20:33:26.272Z,98960.27
2018-05-31T20:35:59.804Z,98948.58
2018-05-31T20:38:33.347Z,98956.17
2018-05-31T20:41:06.836Z,98953.56
2018-05-31T20:43:40.359Z,98949.60
2018-05-31T20:46:13.944Z,98950.56
2018-05-31T20:48:47.516Z,98949.55
2018-05-31T20:51:21.299Z,98951.33
2018-05-31T20:53:54.804Z,98949.94
2018-05-31T20:56:28.328Z,98948.50
2018-05-31T20:59:01.811Z,98941.56
2018-05-31T21:01:35.566Z,98927.49
2018-05-31T21:04:09.107Z,98924.06
2018-05-31T21:06:43.026Z,98920.61
2018-05-31T21:09:16.820Z,98925.16
2018-05-31T21:11:50.329Z,98919.21
2018-05-31T21:14:24.035Z,98923.69
2018-05-31T21:16:57.818Z,98923.48
2018-05-31T21:19:31.332Z,98922.69
2018-05-31T21:22:04.998Z,98917.58
2018-05-31T21:24:38.742Z,98916.85
2018-05-31T21:27:12.297Z,98923.56
2018-05-31T21:29:45.792Z,98923.95
2018-05-31T21:32:19.364Z,98926.54
2018-05-31T21:34:53.003Z,98916.83
2018-05-31T21:37:26.564Z,98918.61
2018-05-31T21:40:00.181Z,98914.08
2018-05-31T21:42:33.819Z,98927.33
2018-05-31T21:45:07.420Z,98927.06
2018-05-31T21:47:41.003Z,98930.62
2018-05-31T21:50:14.571Z,98929.52
2018-05-31T21:52:48.115Z,98935.23
2018-05-31T21:55:21.620Z,98934.97
2018-05-31T21:57:55.267Z,98938.32
2018-05-31T22:03:25.684Z,98933.74
2018-05-31T22:05:59.287Z,98934.13
2018-05-31T22:08:32.861Z,98930.38
2018-05-31T22:11:06.415Z,98934.13
2018-05-31T22:13:39.943Z,98929.14
2018-05-31T22:16:13.539Z,98923.09
2018-05-31T22:18:47.099Z,98917.13
2018-05-31T22:21:20.891Z,98915.11
2018-05-31T22:23:54.471Z,98915.98
2018-05-31T22:26:28.101Z,98910.26
2018-05-31T22:29:01.680Z,98915.27
2018-05-31T22:31:35.304Z,98903.81
2018-05-31T22:34:08.860Z,98910.15
2018-05-31T22:36:42.432Z,98914.47
2018-05-31T22:39:15.932Z,98912.63
2018-05-31T22:41:49.488Z,98908.81
2018-05-31T22:44:23.104Z,98907.83
2018-05-31T22:46:56.862Z,98910.58
2018-05-31T22:49:30.444Z,98908.51
2018-05-31T22:52:04.163Z,98907.52
2018-05-31T22:54:37.692Z,98899.16
2018-05-31T22:57:11.419Z,98895.41
2018-05-31T22:59:45.032Z,98887.53
2018-05-31T23:02:18.820Z,98890.48
2018-05-31T23:04:52.584Z,98893.55
2018-05-31T23:07:26.256Z,98891.07
2018-05-31T23:09:59.788Z,98892.98
2018-05-31T23:12:33.477Z,98888.42
2018-05-31T23:15:07.148Z,98883.91
2018-05-31T23:17:40.719Z,98882.90
2018-05-31T23:20:14.352Z,98885.50
2018-05-31T23:22:47.872Z,98881.59
2018-05-31T23:25:21.537Z,98887.86
2018-05-31T23:27:55.319Z,98888.77
2018-05-31T23:30:29.080Z,98891.88
2018-05-31T23:33:02.681Z,98893.68
2018-05-31T23:35:36.285Z,98889.59
2018-05-31T23:38:09.735Z,98889.80
2018-05-31T23:40:43.323Z,98892.73
2018-05-31T23:43:16.956Z,98891.69
2018-05-31T23:45:50.525Z,98894.91
2018-05-31T23:48:24.173Z,98894.89
2018-05-31T23:50:57.719Z,98892.18
2018-05-31T23:53:31.471Z,98899.23
2018-05-31T23:56:04.976Z,98906.17
2018-05-31T23:58:38.584Z,98906.64
